Maynard, Minnesota
Current Conditions -  °F | °C
As of 3:32 PM on Saturday 22 Nov 2014 (Local Time) from KGDB Reporting Station
Haze Haze  
Wind Chill: 26°   Ceiling: 700
Heat Index: 36°   Visibility: 5mi
Dew Point: 33°   Wind: 15mph
Humidity: 91%   Direction: 130°SE
Pressure: 29.55"   Gusts: NA
Location:  44.91°N, 95.47°W
Report Text: KGDB 222132Z AUTO 13013KT 5SM BR OVC007 02/01 A2955 RMK AO2 T00200007
Loading
Personal Weather Stations






























Interactive Weather Map New forecast layout! Learn more

10-Day Weather Forecast

Advertisements
Track Severe Weather on mobile